Beaufort MCAS - Merritt Field


Codes: KNBC/
Name: Beaufort MCAS - Merritt Field
City: Beaufort
Country: United States
Elevation: 37 ft.
Wikipedia:

Photos at Beaufort MCAS - Merritt Field


   Photos courtesy of SpottingLog. You can add your own sightings and photos by signing up for a free trial today.



No photos found.

Weather at Beaufort MCAS - Merritt Field


Time (UTC)DescriptionTempratureWindCloud coverageVisibilityPressureHumidity
21-Jun-2024 12:00Overcast Clouds23°C9 mph, NE100%10000m1022hPa77%
21-Jun-2024 15:00Light Rain25°C9 mph, NE93%10000m1022hPa75%
21-Jun-2024 18:00Light Rain27°C11 mph, E72%10000m1021hPa73%
21-Jun-2024 21:00Light Rain31°C13 mph, E17%10000m1018hPa55%
22-Jun-2024 00:00Clear Sky27°C9 mph, E6%10000m1019hPa74%
22-Jun-2024 03:00Light Rain24°C7 mph, E0%10000m1020hPa90%
22-Jun-2024 06:00Clear Sky24°C4 mph, SE0%10000m1019hPa94%
22-Jun-2024 09:00Clear Sky24°C2 mph, SE0%10000m1019hPa95%
22-Jun-2024 12:00Clear Sky27°C4 mph, SE0%10000m1019hPa79%
22-Jun-2024 15:00Light Rain31°C9 mph, SE8%10000m1019hPa55%
22-Jun-2024 18:00Light Rain32°C11 mph, SE28%10000m1017hPa52%
22-Jun-2024 21:00Light Rain31°C9 mph, SE54%10000m1016hPa54%
23-Jun-2024 00:00Scattered Clouds28°C7 mph, SE36%10000m1016hPa70%
23-Jun-2024 03:00Light Rain24°C4 mph, SE0%10000m1016hPa93%
23-Jun-2024 06:00Moderate Rain24°C4 mph, S1%10000m1016hPa94%
23-Jun-2024 09:00Light Rain24°C2 mph, SE15%10000m1015hPa92%
23-Jun-2024 12:00Scattered Clouds26°C4 mph, S46%10000m1015hPa90%
23-Jun-2024 15:00Light Rain32°C2 mph, S9%10000m1015hPa57%
23-Jun-2024 18:00Light Rain30°C7 mph, S20%10000m1013hPa71%
23-Jun-2024 21:00Light Rain32°C7 mph, S61%10000m1012hPa57%
24-Jun-2024 00:00Broken Clouds27°C7 mph, SE80%10000m1012hPa79%
24-Jun-2024 03:00Light Rain25°C7 mph, S100%10000m1012hPa90%
24-Jun-2024 06:00Broken Clouds25°C4 mph, SW75%10000m1011hPa88%
24-Jun-2024 09:00Broken Clouds24°C7 mph, SW62%10000m1011hPa86%
24-Jun-2024 12:00Broken Clouds27°C9 mph, SW52%10000m1011hPa73%
24-Jun-2024 15:00Overcast Clouds32°C7 mph, W99%10000m1012hPa49%
24-Jun-2024 18:00Overcast Clouds39°C9 mph, W87%10000m1010hPa25%
24-Jun-2024 21:00Scattered Clouds39°C11 mph, W32%10000m1008hPa24%
25-Jun-2024 00:00Scattered Clouds31°C11 mph, SW50%10000m1009hPa51%
25-Jun-2024 03:00Overcast Clouds28°C7 mph, SW100%10000m1011hPa63%
25-Jun-2024 06:00Light Rain25°C4 mph, SW93%10000m1011hPa77%
25-Jun-2024 09:00Scattered Clouds24°C4 mph, SW26%10000m1011hPa81%
25-Jun-2024 12:00Few Clouds27°C7 mph, W13%10000m1012hPa70%
25-Jun-2024 15:00Clear Sky34°C7 mph, NW0%10000m1012hPa42%
25-Jun-2024 18:00Clear Sky39°C4 mph, N0%10000m1011hPa29%
25-Jun-2024 21:00Broken Clouds34°C9 mph, SE63%10000m1010hPa48%
26-Jun-2024 00:00Scattered Clouds30°C7 mph, S29%10000m1011hPa68%
26-Jun-2024 03:00Overcast Clouds26°C9 mph, SW90%10000m1012hPa68%
26-Jun-2024 06:00Scattered Clouds25°C7 mph, W45%10000m1012hPa79%
26-Jun-2024 09:00Overcast Clouds24°C4 mph, SW86%10000m1012hPa88%